• Join FlightAware (Why Join?)
  • Login
  • US Flag 
11:15PM EDT


 

Airport Tracker/Info


-or-


 

Live Flight TrackerFlight Track Log ✈ N730C ✈ 28-Jul-2013 ✈ KLZU - KRYV

Flight Track Log - Related Links

Times and Time Zones

All times are in EDT time to prevent confusion due to time zone crossing. See the N730C flight status page for this flight to view local times or setup timezone preferences in your user account.

Time Position Orientation Groundspeed Altitude Reporting Facility
EDT Latitude Longitude Course Direction KTS MPH feet Rate Location/Type
08:33AM 33.9833 -84.0000 292° West 107 123 2,600  Level Atlanta TRACON
08:34AM 34.0167 -84.0333 320° Northwest 123 142 3,400 840 Climbing Atlanta TRACON
08:35AM 34.0333 -84.0500 320° Northwest 129 148 4,200 840 Climbing Atlanta TRACON
08:36AM 34.0667 -84.0833 320° Northwest 136 157 5,100 780 Climbing Atlanta TRACON
08:37AM 34.1000 -84.1000 338° Northwest 135 155 5,900 720 Climbing Atlanta TRACON
08:38AM 34.1322 -84.1292 323° Northwest 134 154 6,700 720 Climbing Atlanta Center
08:39AM 34.0773 -84.2486 292° West  Level FlightAware Approximate
08:39AM 34.1636 -84.1517 329° Northwest 134 154 7,400  Level Atlanta Center
08:40AM 34.1928 -84.1819 319° Northwest 134 154 8,000 300 Climbing Atlanta Center
08:41AM 34.2200 -84.1944 339° North 134 154 8,000  Level Atlanta Center
08:42AM 34.2636 -84.2322 324° Northwest 175 201 8,100  Climbing Atlanta Center
08:43AM 34.3033 -84.2625 328° Northwest 170 196 8,100  Level Atlanta Center
08:44AM 34.3428 -84.2903 330° Northwest 170 196 8,100 -60 Level Atlanta Center
08:45AM 34.3889 -84.2981 352° North 165 190 8,000  Descending Atlanta Center
08:46AM 34.4283 -84.3133 342° North 165 190 8,100  Climbing Atlanta Center
08:47AM 34.4806 -84.3286 346° North 165 190 8,000 -60 Descending Atlanta Center
08:48AM 34.5264 -84.3414 347° North 165 190 8,000  Level Atlanta Center
08:49AM 34.5639 -84.3517 347° North 165 190 8,000  Level Atlanta Center
08:50AM 34.6139 -84.3744 339° North 170 196 8,000  Level Atlanta Center
08:51AM 34.6578 -84.3897 344° North 165 190 8,100  Climbing Atlanta Center
08:52AM 34.6994 -84.4000 349° North 160 184 8,100  Level Atlanta Center
08:54AM 34.7542 -84.4173 345° North  Level FlightAware Approximate
08:54AM 34.7850 -84.4308 345° North 165 190 8,100  Level Atlanta Center
08:55AM 34.8289 -84.4436 347° North 160 184 8,100  Level Atlanta Center
08:56AM 34.8747 -84.4592 344° North 167 192 8,100 -60 Level Atlanta Center
08:57AM 34.9164 -84.4719 346° North 167 192 8,000 -60 Descending Atlanta Center
08:58AM 34.9581 -84.4875 343° North 167 192 8,000  Level Atlanta Center
08:59AM 35.0017 -84.5053 342° North 167 192 8,000  Level Atlanta Center
09:00AM 35.0456 -84.5183 346° North 167 192 8,000  Level Atlanta Center
09:01AM 35.0892 -84.5339 344° North 167 192 8,000  Level Atlanta Center
09:02AM 35.1331 -84.5492 344° North 167 192 8,000  Level Atlanta Center
09:04AM 35.1880 -84.5654 346° North  Level FlightAware Approximate
09:05AM 35.2769 -84.5958 346° North 172 198 8,000  Level Atlanta Center
09:06AM 35.3186 -84.6089 346° North 172 198 8,000  Level Atlanta Center
09:07AM 35.3622 -84.6244 344° North 172 198 8,000  Level Atlanta Center
09:08AM 35.4122 -84.6428 343° North 605 696 8,000  Level Atlanta Center
09:09AM 35.4539 -84.6558 346° North 366 421 8,000  Level Atlanta Center
09:10AM 35.4975 -84.6714 344° North 222 255 8,000  Level Atlanta Center
09:11AM 35.5433 -84.6844 347° North 195 224 8,000  Level Atlanta Center
09:12AM 35.5872 -84.7003 344° North 179 206 8,000  Level Atlanta Center
09:13AM 35.6331 -84.7158 345° North 166 191 8,000  Level Atlanta Center
09:14AM 35.6789 -84.7289 347° North 166 191 8,000  Level Atlanta Center
09:15AM 35.7247 -84.7472 342° North 166 191 8,000  Level Atlanta Center
09:16AM 35.7683 -84.7606 346° North 166 191 8,000  Level Atlanta Center
09:17AM 35.8119 -84.7761 344° North 166 191 8,000  Level Atlanta Center
09:18AM 35.8578 -84.7919 344° North 166 191 8,000  Level Atlanta Center
09:19AM 35.9078 -84.8103 343° North 166 191 8,000  Level Atlanta Center
09:20AM 35.9556 -84.8236 347° North 166 191 8,000  Level Atlanta Center
09:21AM 35.9994 -84.8394 344° North 166 191 8,000  Level Atlanta Center
09:24AM 36.1008 -84.8722 345° North 167 192 8,000  Level Indianapolis Center
09:25AM 36.1450 -84.8875 344° North 165 190 8,000  Level Indianapolis Center
09:26AM 36.1953 -84.9056 344° North 158 182 8,000  Level Indianapolis Center
09:27AM 36.2364 -84.9186 346° North 154 177 8,000  Level Indianapolis Center
09:28AM 36.2797 -84.9336 344° North 159 183 8,000  Level Indianapolis Center
09:29AM 36.3222 -84.9486 344° North 158 182 8,000  Level Indianapolis Center
09:30AM 36.3647 -84.9625 345° North 158 182 8,000  Level Indianapolis Center
09:31AM 36.4064 -84.9769 344° North 156 180 8,000  Level Indianapolis Center
09:32AM 36.4489 -84.9919 344° North 158 182 8,000  Level Indianapolis Center
09:33AM 36.4989 -85.0097 344° North 156 180 8,000  Level Indianapolis Center
09:34AM 36.5400 -85.0239 345° North 155 178 8,000  Level Indianapolis Center
09:35AM 36.5825 -85.0386 344° North 158 182 8,000  Level Indianapolis Center
09:36AM 36.6228 -85.0514 346° North 151 174 8,000  Level Indianapolis Center
09:37AM 36.6653 -85.0675 343° North 156 180 8,000  Level Indianapolis Center
09:38AM 36.7053 -85.0808 345° North 151 174 8,000  Level Indianapolis Center
09:39AM 36.7481 -85.0947 345° North 156 180 8,000  Level Indianapolis Center
09:40AM 36.7969 -85.1142 342° North 153 176 8,000  Level Indianapolis Center
09:41AM 36.8386 -85.1267 346° North 155 178 8,000  Level Indianapolis Center
09:42AM 36.8786 -85.1422 343° North 151 174 8,000  Level Indianapolis Center
09:43AM 36.9169 -85.1611 338° Northwest 150 173 8,000 -180 Level Indianapolis Center
09:44AM 36.9506 -85.1919 324° Northwest 148 170 7,700 -480 Descending Indianapolis Center
09:45AM 36.9900 -85.2228 328° Northwest 160 184 7,100 -360 Descending Indianapolis Center
09:46AM 37.0278 -85.2528 328° Northwest 163 188 7,000 -60 Descending Indianapolis Center
09:47AM 37.0719 -85.2878 328° Northwest 159 183 7,000  Level Indianapolis Center
09:48AM 37.1064 -85.3167 326° Northwest 154 177 7,000  Level Indianapolis Center
09:49AM 37.1419 -85.3442 328° Northwest 153 176 7,000  Level Indianapolis Center
09:51AM 37.1778 -85.3703 330° Northwest 150 173 7,000  Level Indianapolis Center
09:52AM 37.2136 -85.3967 330° Northwest 149 171 7,000  Level Indianapolis Center
09:53AM 37.2483 -85.4247 327° Northwest 149 171 7,000  Level Indianapolis Center
09:54AM 37.2861 -85.4533 329° Northwest 147 169 7,000  Level Indianapolis Center
09:55AM 37.3206 -85.4806 328° Northwest 147 169 7,000  Level Indianapolis Center
09:56AM 37.3594 -85.5119 327° Northwest 148 170 7,000  Level Indianapolis Center
09:57AM 37.3908 -85.5383 326° Northwest 150 173 7,000  Level Indianapolis Center
09:58AM 37.4319 -85.5722 327° Northwest 149 171 7,000  Level Indianapolis Center
09:59AM 37.4683 -85.5992 330° Northwest 149 171 7,000  Level Indianapolis Center
10:00AM 37.5047 -85.6269 329° Northwest 149 171 7,000  Level Indianapolis Center
10:01AM 37.5403 -85.6544 328° Northwest 150 173 7,000  Level Indianapolis Center
10:02AM 37.5761 -85.6825 328° Northwest 150 173 7,000 -360 Level Indianapolis Center
10:03AM 37.6122 -85.7119 327° Northwest 152 175 6,300 -540 Descending Indianapolis Center
10:04AM 37.6531 -85.7417 330° Northwest 163 188 6,000 -180 Descending Indianapolis Center
10:05AM 37.6953 -85.7769 327° Northwest 156 180 6,000  Level Indianapolis Center
10:06AM 37.7308 -85.8033 330° Northwest 149 171 6,000  Level Indianapolis Center
10:07AM 37.7661 -85.8325 327° Northwest 150 173 6,000  Level Indianapolis Center
10:08AM 37.8011 -85.8614 327° Northwest 150 173 6,000  Level Indianapolis Center
10:09AM 37.8378 -85.8894 329° Northwest 152 175 6,000  Level Indianapolis Center
10:10AM 37.8728 -85.9183 327° Northwest 152 175 6,000  Level Indianapolis Center
10:11AM 37.9075 -85.9475 326° Northwest 150 173 6,000  Level Indianapolis Center
10:12AM 37.9503 -85.9811 328° Northwest 150 173 6,000  Level Indianapolis Center
10:13AM 37.9858 -86.0089 328° Northwest 150 173 6,000  Level Indianapolis Center
10:14AM 38.0206 -86.0375 327° Northwest 149 171 6,000  Level Indianapolis Center
10:15AM 38.0553 -86.0653 328° Northwest 148 170 6,000  Level Indianapolis Center
10:16AM 38.0911 -86.0942 328° Northwest 150 173 6,000  Level Indianapolis Center
10:17AM 38.1267 -86.1225 328° Northwest 150 173 6,000  Level Indianapolis Center
10:18AM 38.1614 -86.1503 328° Northwest 149 171 6,000  Level Indianapolis Center
10:19AM 38.2033 -86.1842 328° Northwest 149 171 6,000  Level Indianapolis Center
10:21AM 38.2369 -86.2128 326° Northwest 147 169 6,000  Level Indianapolis Center
10:22AM 38.2719 -86.2400 329° Northwest 146 168 6,000  Level Indianapolis Center
10:23AM 38.3053 -86.2675 327° Northwest 145 167 6,000  Level Indianapolis Center
10:24AM 38.3400 -86.2939 329° Northwest 144 166 6,000  Level Indianapolis Center
10:25AM 38.3744 -86.3231 326° Northwest 147 169 6,000  Level Indianapolis Center
10:26AM 38.4086 -86.3511 327° Northwest 147 169 6,000  Level Indianapolis Center
10:27AM 38.4500 -86.3858 327° Northwest 147 169 6,000  Level Indianapolis Center
10:28AM 38.4847 -86.4142 327° Northwest 148 170 6,000  Level Indianapolis Center
10:29AM 38.5186 -86.4417 328° Northwest 146 168 6,000  Level Indianapolis Center
10:30AM 38.5539 -86.4703 328° Northwest 148 170 6,000  Level Indianapolis Center
10:31AM 38.5883 -86.4986 327° Northwest 148 170 6,000  Level Indianapolis Center
10:32AM 38.6225 -86.5269 327° Northwest 146 168 6,000  Level Indianapolis Center
10:33AM 38.6644 -86.5600 328° Northwest 147 169 6,000  Level Indianapolis Center
10:34AM 38.6989 -86.5892 327° Northwest 148 170 6,000  Level Indianapolis Center
10:35AM 38.7339 -86.6183 327° Northwest 148 170 6,000  Level Indianapolis Center
10:36AM 38.7683 -86.6453 329° Northwest 146 168 6,000 -180 Level Indianapolis Center
10:37AM 38.8031 -86.6744 327° Northwest 147 169 5,700 -540 Descending Indianapolis Center
10:38AM 38.8414 -86.7064 327° Northwest 157 181 4,900 -780 Descending Indianapolis Center
10:39AM 38.8833 -86.7406 328° Northwest 165 190 4,100 -480 Descending Indianapolis Center
10:40AM 38.9250 -86.7758 327° Northwest 161 185 4,000  Descending Indianapolis Center
10:41AM 38.9597 -86.8047 327° Northwest 153 176 4,100  Climbing Indianapolis Center
10:42AM 38.9950 -86.8336 328° Northwest 150 173 4,000 -60 Descending Indianapolis Center
10:43AM 39.0292 -86.8622 327° Northwest 147 169 4,000 -60 Level Indianapolis Center
10:44AM 39.0631 -86.8903 327° Northwest 146 168 3,900  Descending Indianapolis Center
10:45AM 39.0964 -86.9181 327° Northwest 143 165 4,000  Climbing Indianapolis Center
10:46AM 39.1308 -86.9469 327° Northwest 145 167 4,000  Level Indianapolis Center
10:47AM 39.1742 -86.9825 328° Northwest 149 171 4,000  Level Indianapolis Center
10:48AM 39.2094 -87.0114 328° Northwest 151 174 4,000  Level Indianapolis Center
10:49AM 39.2442 -87.0400 327° Northwest 150 173 4,000  Level Indianapolis Center
10:50AM 39.2775 -87.0681 327° Northwest 148 170 4,000  Level Indianapolis Center
10:51AM 39.3128 -87.0975 327° Northwest 148 170 4,000  Level Indianapolis Center
10:53AM 39.3472 -87.1267 327° Northwest 148 170 4,000  Level Indianapolis Center
10:54AM 39.3817 -87.1561 327° Northwest 148 170 4,000  Level Indianapolis Center
10:55AM 39.4228 -87.1908 327° Northwest 147 169 4,000  Level Indianapolis Center
10:56AM 39.4544 -87.2183 326° Northwest 143 165 4,000  Level Indianapolis Center
10:57AM 39.4886 -87.2461 328° Northwest 144 166 4,000 -60 Level Indianapolis Center
10:58AM 39.5275 -87.2658 339° North 148 170 3,900  Descending Indianapolis Center
10:59AM 39.5669 -87.2853 339° North 151 174 4,000  Climbing Indianapolis Center
11:00AM 39.6064 -87.3058 338° Northwest 152 175 4,000  Level Indianapolis Center
11:01AM 39.6508 -87.3286 338° Northwest 149 171 4,000  Level Indianapolis Center
11:02AM 39.6892 -87.3475 339° North 148 170 4,000  Level Indianapolis Center
11:03AM 39.7275 -87.3678 338° Northwest 148 170 4,000  Level Indianapolis Center
11:04AM 39.7706 -87.3883 340° North 148 170 4,000  Level Indianapolis Center
11:05AM 39.8053 -87.4078 337° Northwest 150 173 4,000  Level Indianapolis Center
11:06AM 39.8453 -87.4269 340° North 150 173 4,000  Level Indianapolis Center
11:07AM 39.8847 -87.4453 340° North 151 174 4,000  Level Indianapolis Center
11:08AM 39.9256 -87.4669 338° Northwest 150 173 4,000  Level Indianapolis Center
11:09AM 39.9664 -87.4881 338° Northwest 150 173 4,000  Level Indianapolis Center
11:11AM 40.0169 -87.5168 336° Northwest  Level FlightAware Approximate
11:15AM 40.2053 -87.6117 340° North 145 167 4,000  Level Chicago Center
11:16AM 40.2450 -87.6325 338° Northwest 147 169 4,000  Level Chicago Center
11:18AM 40.3015 -87.6573 340° North  Level FlightAware Approximate
11:18AM 40.2831 -87.6506 340° North 149 171 4,000  Level Chicago Center
11:19AM 40.3425 -87.6764 340° North  Level FlightAware Approximate
11:19AM 40.3228 -87.6714 338° Northwest 146 168 4,000  Level Chicago Center
11:20AM 40.3835 -87.6955 340° North  Level FlightAware Approximate
11:20AM 40.3628 -87.6867 344° North 145 167 4,000  Level Chicago Center
11:21AM 40.4244 -87.7146 340° North  Level FlightAware Approximate
11:21AM 40.3864 -87.7325 304° West 146 168 4,000  Level Chicago Center
11:22AM 40.4039 -87.7719 300° West 144 166 6,000 960 Climbing Chicago Center
11:23AM 40.4292 -87.8161 307° West 128 147 6,000  Level Chicago Center
11:24AM 40.4483 -87.8564 302° West 128 147 6,000 -120 Level Chicago Center
11:25AM 40.4719 -87.8961 308° West 126 145 5,800  Descending Chicago Center
11:26AM 40.5081 -87.9164 337° Northwest 145 167 6,000 480 Climbing Chicago Center
11:27AM 40.5508 -87.9453 333° Northwest 145 167 6,800 480 Climbing Chicago Center
11:28AM 40.5833 -87.9703 330° Northwest 142 163 7,000 120 Climbing Chicago Center
11:29AM 40.6172 -87.9950 331° Northwest 140 161 7,100  Climbing Chicago Center
11:30AM 40.6533 -88.0222 330° Northwest 143 165 7,100  Level Chicago Center
11:31AM 40.6894 -88.0483 331° Northwest 146 168 7,100  Level Chicago Center
11:32AM 40.7253 -88.0731 332° Northwest 146 168 7,100  Level Chicago Center
11:33AM 40.7678 -88.1044 331° Northwest 146 168 7,100  Level Chicago Center
11:34AM 40.8025 -88.1294 331° Northwest 144 166 7,100  Level Chicago Center
11:35AM 40.8367 -88.1553 330° Northwest 144 166 7,100  Level Chicago Center
11:36AM 40.8703 -88.1797 331° Northwest 142 163 7,100  Level Chicago Center
11:37AM 40.9044 -88.2053 331° Northwest 141 162 7,100  Level Chicago Center
11:38AM 40.9392 -88.2297 332° Northwest 141 162 7,100  Level Chicago Center
11:39AM 40.9792 -88.2603 330° Northwest 140 161 7,100 -60 Level Chicago Center
11:40AM 41.0125 -88.2847 331° Northwest 139 160 7,000 -60 Descending Chicago Center
11:41AM 41.0458 -88.3081 332° Northwest 137 158 7,000  Level Chicago Center
11:42AM 41.0786 -88.3333 330° Northwest 137 158 7,000  Level Chicago Center
11:43AM 41.1114 -88.3572 331° Northwest 136 157 7,000  Level Chicago Center
11:44AM 41.1458 -88.3836 330° Northwest 138 159 7,000  Level Chicago Center
11:45AM 41.1886 -88.4150 331° Northwest 141 162 7,000  Level Chicago Center
11:46AM 41.2236 -88.4408 331° Northwest 143 165 7,000  Level Chicago Center
11:48AM 41.2581 -88.4667 331° Northwest 143 165 7,000  Level Chicago Center
11:49AM 41.2922 -88.4919 331° Northwest 142 163 7,000  Level Chicago Center
11:50AM 41.3278 -88.5183 331° Northwest 143 165 7,000  Level Chicago Center
11:51AM 41.3644 -88.5461 330° Northwest 146 168 7,000  Level Chicago Center
11:52AM 41.4067 -88.5775 331° Northwest 146 168 7,000  Level Chicago Center
11:53AM 41.4342 -88.5978 331° Northwest 145 167 7,000  Level Chicago Center
11:54AM 41.4758 -88.6297 330° Northwest 144 166 7,000  Level Chicago Center
11:55AM 41.5011 -88.6367 348° North 127 146 7,000  Level Chicago Center
11:56AM 41.5422 -88.6728 327° Northwest 185 213 7,000  Level Chicago Center
11:57AM 41.5808 -88.7042 329° Northwest 165 190 7,000  Level Chicago Center
11:58AM 41.6211 -88.7403 326° Northwest 152 175 7,000  Level Chicago Center
11:59AM 41.6550 -88.7639 333° Northwest 147 169 7,000  Level Chicago Center
12:00PM 41.6875 -88.7856 334° Northwest 139 160 7,000  Level Chicago Center
12:01PM 41.7225 -88.8125 330° Northwest 141 162 7,000  Level Chicago Center
12:02PM 41.7572 -88.8381 331° Northwest 142 163 7,000  Level Chicago Center
12:03PM 41.7992 -88.8744 327° Northwest 149 171 7,000  Level Chicago Center
12:04PM 41.8353 -88.9003 332° Northwest 150 173 7,000  Level Chicago Center
12:06PM 41.8891 -88.9400 331° Northwest  Level FlightAware Approximate
12:06PM 41.9083 -88.9592 331° Northwest 152 175 7,000  Level Chicago Center
12:07PM 41.9436 -88.9858 331° Northwest 150 173 7,000  Level Chicago Center
12:08PM 41.9869 -89.0150 333° Northwest 149 171 7,000  Level Chicago Center
12:09PM 42.0239 -89.0442 330° Northwest 151 174 7,000 -420 Level Chicago Center
12:10PM 42.0692 -89.0397 North 169 194 6,200 -660 Descending Chicago Center
12:11PM 42.1083 -89.0136 26° Northeast 167 192 5,700 -540 Descending Chicago Center
12:12PM 42.1528 -89.0083 North 163 188 5,100 -300 Descending Chicago Center
12:14PM 42.1746 -89.0679 296° West  Level FlightAware Approximate
12:14PM 42.2372 -88.9881 296° West 134 154 4,900  Level Chicago Center
12:15PM 42.2778 -88.9747 14° North 149 171 5,000  Climbing Chicago Center
12:16PM 42.3161 -88.9672 North 149 171 5,000 960 Level Chicago Center
12:17PM 42.3561 -88.9464 21° North 147 169 7,000  Climbing Chicago Center
12:18PM 42.4044 -88.9403 North 152 175 5,000 -1,020 Descending Chicago Center
12:19PM 42.4486 -88.9289 11° North 152 175 4,900 -60 Descending Chicago Center
12:20PM 42.4894 -88.9164 13° North 152 175 4,900  Level Chicago Center
12:21PM 42.5306 -88.9044 12° North 151 174 4,900  Level Chicago Center
12:22PM 42.5717 -88.8933 11° North 150 173 4,900  Level Chicago Center
12:24PM 42.6131 -88.8825 11° North 150 173 4,900  Level Chicago Center
12:25PM 42.6542 -88.8711 12° North 151 174 4,900  Level Chicago Center
12:26PM 42.7022 -88.8561 13° North 151 174 4,900  Level Chicago Center
12:27PM 42.7433 -88.8442 12° North 151 174 4,900  Level Chicago Center
12:28PM 42.7847 -88.8333 11° North 151 174 4,900  Level Chicago Center
12:29PM 42.8261 -88.8217 12° North 151 174 4,900  Level Chicago Center
12:30PM 42.8647 -88.8108 12° North 151 174 4,900 -120 Level Chicago Center
12:31PM 42.9142 -88.7961 12° North 149 171 4,700 -540 Descending Chicago Center
12:32PM 42.9583 -88.7853 10° North 156 180 3,800 -840 Descending Chicago Center
12:33PM 42.9939 -88.7728 14° North 157 181 3,000 -780 Descending Chicago Center